sensor_id;sensor_type;location;lat;lon;timestamp;P1;durP1;ratioP1;P2;durP2;ratioP2
65835;SDS011;52595;51.608;7.216;2022-08-11T00:02:23;2.88;;;1.92;;
65835;SDS011;52595;51.608;7.216;2022-08-11T00:04:51;2.65;;;2.10;;
65835;SDS011;52595;51.608;7.216;2022-08-11T00:07:19;5.32;;;2.22;;
65835;SDS011;52595;51.608;7.216;2022-08-11T00:09:45;5.82;;;2.20;;
65835;SDS011;52595;51.608;7.216;2022-08-11T00:12:12;4.13;;;2.20;;
65835;SDS011;52595;51.608;7.216;2022-08-11T00:14:39;4.90;;;2.35;;
65835;SDS011;52595;51.608;7.216;2022-08-11T00:17:06;4.43;;;2.17;;
65835;SDS011;52595;51.608;7.216;2022-08-11T00:19:37;8.25;;;2.30;;
65835;SDS011;52595;51.608;7.216;2022-08-11T00:22:06;3.67;;;2.10;;
65835;SDS011;52595;51.608;7.216;2022-08-11T00:24:33;4.53;;;2.05;;
65835;SDS011;52595;51.608;7.216;2022-08-11T00:27:01;4.78;;;2.20;;
65835;SDS011;52595;51.608;7.216;2022-08-11T00:29:27;3.78;;;2.25;;
65835;SDS011;52595;51.608;7.216;2022-08-11T00:31:54;4.15;;;2.15;;
65835;SDS011;52595;51.608;7.216;2022-08-11T00:34:24;9.25;;;2.17;;
65835;SDS011;52595;51.608;7.216;2022-08-11T00:37:38;4.22;;;2.10;;
65835;SDS011;52595;51.608;7.216;2022-08-11T00:39:44;7.45;;;2.40;;
65835;SDS011;52595;51.608;7.216;2022-08-11T01:17:43;2.85;;;2.08;;
65835;SDS011;52595;51.608;7.216;2022-08-11T01:29:16;7.88;;;2.50;;
65835;SDS011;52595;51.608;7.216;2022-08-11T01:35:12;7.22;;;2.40;;
65835;SDS011;52595;51.608;7.216;2022-08-11T01:43:39;4.53;;;2.53;;
65835;SDS011;52595;51.608;7.216;2022-08-11T01:49:30;6.88;;;2.40;;
65835;SDS011;52595;51.608;7.216;2022-08-11T01:54:41;6.57;;;2.60;;
65835;SDS011;52595;51.608;7.216;2022-08-11T01:59:42;4.03;;;2.40;;
65835;SDS011;52595;51.608;7.216;2022-08-11T02:17:10;7.15;;;2.75;;
65835;SDS011;52595;51.608;7.216;2022-08-11T02:19:57;4.97;;;2.30;;
65835;SDS011;52595;51.608;7.216;2022-08-11T02:26:21;4.60;;;2.60;;
65835;SDS011;52595;51.608;7.216;2022-08-11T02:32:18;4.25;;;2.63;;
65835;SDS011;52595;51.608;7.216;2022-08-11T02:38:36;5.00;;;2.72;;
65835;SDS011;52595;51.608;7.216;2022-08-11T02:44:28;9.75;;;2.63;;
65835;SDS011;52595;51.608;7.216;2022-08-11T02:55:41;4.47;;;2.63;;
65835;SDS011;52595;51.608;7.216;2022-08-11T03:01:06;6.63;;;2.45;;
65835;SDS011;52595;51.608;7.216;2022-08-11T03:03:56;4.53;;;2.65;;
65835;SDS011;52595;51.608;7.216;2022-08-11T03:06:30;5.95;;;2.70;;
65835;SDS011;52595;51.608;7.216;2022-08-11T03:09:08;9.68;;;3.15;;
65835;SDS011;52595;51.608;7.216;2022-08-11T03:14:39;4.13;;;2.63;;
65835;SDS011;52595;51.608;7.216;2022-08-11T03:17:48;3.83;;;2.55;;
65835;SDS011;52595;51.608;7.216;2022-08-11T03:20:45;5.38;;;3.00;;
65835;SDS011;52595;51.608;7.216;2022-08-11T03:23:27;4.82;;;2.70;;
65835;SDS011;52595;51.608;7.216;2022-08-11T03:29:06;9.88;;;2.90;;
65835;SDS011;52595;51.608;7.216;2022-08-11T03:31:43;4.50;;;2.70;;
65835;SDS011;52595;51.608;7.216;2022-08-11T03:34:14;6.53;;;3.00;;
65835;SDS011;52595;51.608;7.216;2022-08-11T03:39:32;5.60;;;2.80;;
65835;SDS011;52595;51.608;7.216;2022-08-11T03:42:26;6.47;;;2.70;;
65835;SDS011;52595;51.608;7.216;2022-08-11T03:48:28;6.00;;;2.85;;
65835;SDS011;52595;51.608;7.216;2022-08-11T03:54:26;9.35;;;2.95;;
65835;SDS011;52595;51.608;7.216;2022-08-11T04:00:10;7.50;;;3.00;;
65835;SDS011;52595;51.608;7.216;2022-08-11T04:25:58;5.75;;;3.60;;
65835;SDS011;52595;51.608;7.216;2022-08-11T04:28:51;6.63;;;3.22;;
65835;SDS011;52595;51.608;7.216;2022-08-11T04:31:58;6.82;;;3.50;;
65835;SDS011;52595;51.608;7.216;2022-08-11T04:49:30;7.55;;;3.40;;
65835;SDS011;52595;51.608;7.216;2022-08-11T04:58:21;7.03;;;3.30;;
65835;SDS011;52595;51.608;7.216;2022-08-11T05:12:18;5.03;;;3.00;;
65835;SDS011;52595;51.608;7.216;2022-08-11T05:14:51;5.72;;;3.10;;
65835;SDS011;52595;51.608;7.216;2022-08-11T05:17:59;6.78;;;3.22;;
65835;SDS011;52595;51.608;7.216;2022-08-11T05:20:46;5.40;;;3.05;;
65835;SDS011;52595;51.608;7.216;2022-08-11T05:23:34;7.28;;;3.40;;
65835;SDS011;52595;51.608;7.216;2022-08-11T05:26:24;7.00;;;3.35;;
65835;SDS011;52595;51.608;7.216;2022-08-11T05:29:25;8.32;;;3.30;;
65835;SDS011;52595;51.608;7.216;2022-08-11T05:32:18;7.35;;;3.40;;
65835;SDS011;52595;51.608;7.216;2022-08-11T05:35:03;13.15;;;3.70;;
65835;SDS011;52595;51.608;7.216;2022-08-11T05:37:40;6.05;;;3.20;;
65835;SDS011;52595;51.608;7.216;2022-08-11T05:40:26;5.45;;;3.10;;
65835;SDS011;52595;51.608;7.216;2022-08-11T05:43:11;4.70;;;3.13;;
65835;SDS011;52595;51.608;7.216;2022-08-11T05:46:00;7.15;;;3.65;;
65835;SDS011;52595;51.608;7.216;2022-08-11T05:48:48;4.65;;;2.97;;
65835;SDS011;52595;51.608;7.216;2022-08-11T05:51:33;8.73;;;3.40;;
65835;SDS011;52595;51.608;7.216;2022-08-11T05:54:19;7.28;;;3.67;;
65835;SDS011;52595;51.608;7.216;2022-08-11T05:57:03;8.23;;;3.40;;
65835;SDS011;52595;51.608;7.216;2022-08-11T05:59:30;6.40;;;3.60;;
65835;SDS011;52595;51.608;7.216;2022-08-11T06:02:01;7.90;;;3.72;;
65835;SDS011;52595;51.608;7.216;2022-08-11T06:04:28;7.25;;;3.70;;
65835;SDS011;52595;51.608;7.216;2022-08-11T06:09:30;8.63;;;3.63;;
65835;SDS011;52595;51.608;7.216;2022-08-11T06:12:08;7.60;;;3.72;;
65835;SDS011;52595;51.608;7.216;2022-08-11T06:14:42;7.28;;;3.58;;
65835;SDS011;52595;51.608;7.216;2022-08-11T06:17:10;8.88;;;3.70;;
65835;SDS011;52595;51.608;7.216;2022-08-11T06:19:38;6.72;;;3.75;;
65835;SDS011;52595;51.608;7.216;2022-08-11T06:22:07;12.43;;;3.85;;
65835;SDS011;52595;51.608;7.216;2022-08-11T06:24:35;11.70;;;3.75;;
65835;SDS011;52595;51.608;7.216;2022-08-11T06:27:02;8.50;;;3.83;;
65835;SDS011;52595;51.608;7.216;2022-08-11T06:29:30;7.13;;;4.03;;
65835;SDS011;52595;51.608;7.216;2022-08-11T06:32:00;8.45;;;3.72;;
65835;SDS011;52595;51.608;7.216;2022-08-11T06:34:30;13.30;;;3.78;;
65835;SDS011;52595;51.608;7.216;2022-08-11T06:37:29;10.05;;;3.70;;
65835;SDS011;52595;51.608;7.216;2022-08-11T06:43:43;7.65;;;3.55;;
65835;SDS011;52595;51.608;7.216;2022-08-11T06:46:01;7.78;;;3.58;;
65835;SDS011;52595;51.608;7.216;2022-08-11T06:48:33;8.63;;;3.95;;
65835;SDS011;52595;51.608;7.216;2022-08-11T06:51:03;8.20;;;3.70;;
65835;SDS011;52595;51.608;7.216;2022-08-11T06:53:45;6.00;;;3.72;;
65835;SDS011;52595;51.608;7.216;2022-08-11T06:56:14;9.93;;;3.80;;
65835;SDS011;52595;51.608;7.216;2022-08-11T06:59:04;6.43;;;4.00;;
65835;SDS011;52595;51.608;7.216;2022-08-11T07:07:19;9.57;;;3.92;;
65835;SDS011;52595;51.608;7.216;2022-08-11T07:10:25;8.85;;;3.75;;
65835;SDS011;52595;51.608;7.216;2022-08-11T07:13:11;10.98;;;3.83;;
65835;SDS011;52595;51.608;7.216;2022-08-11T07:15:58;8.85;;;3.38;;
65835;SDS011;52595;51.608;7.216;2022-08-11T07:18:25;6.80;;;3.08;;
65835;SDS011;52595;51.608;7.216;2022-08-11T07:21:28;7.55;;;3.58;;
65835;SDS011;52595;51.608;7.216;2022-08-11T07:24:16;6.13;;;3.63;;
65835;SDS011;52595;51.608;7.216;2022-08-11T07:27:03;12.63;;;3.92;;
65835;SDS011;52595;51.608;7.216;2022-08-11T07:29:50;9.55;;;3.60;;
65835;SDS011;52595;51.608;7.216;2022-08-11T07:32:29;9.52;;;3.50;;
65835;SDS011;52595;51.608;7.216;2022-08-11T07:35:19;8.20;;;3.63;;
65835;SDS011;52595;51.608;7.216;2022-08-11T07:37:52;10.30;;;3.45;;
65835;SDS011;52595;51.608;7.216;2022-08-11T07:40:23;13.23;;;3.40;;
65835;SDS011;52595;51.608;7.216;2022-08-11T07:42:49;13.40;;;3.53;;
65835;SDS011;52595;51.608;7.216;2022-08-11T07:45:17;9.18;;;3.53;;
65835;SDS011;52595;51.608;7.216;2022-08-11T07:48:02;8.63;;;3.42;;
65835;SDS011;52595;51.608;7.216;2022-08-11T07:50:48;7.50;;;3.03;;
65835;SDS011;52595;51.608;7.216;2022-08-11T07:53:32;8.13;;;3.13;;
65835;SDS011;52595;51.608;7.216;2022-08-11T07:56:02;7.07;;;3.20;;
65835;SDS011;52595;51.608;7.216;2022-08-11T07:58:29;9.55;;;3.08;;
65835;SDS011;52595;51.608;7.216;2022-08-11T08:01:22;6.88;;;3.03;;
65835;SDS011;52595;51.608;7.216;2022-08-11T08:04:09;7.43;;;3.30;;
65835;SDS011;52595;51.608;7.216;2022-08-11T08:06:56;11.85;;;2.88;;
65835;SDS011;52595;51.608;7.216;2022-08-11T08:09:42;8.43;;;3.30;;
65835;SDS011;52595;51.608;7.216;2022-08-11T08:12:27;8.07;;;3.20;;
65835;SDS011;52595;51.608;7.216;2022-08-11T08:15:13;8.02;;;3.10;;
65835;SDS011;52595;51.608;7.216;2022-08-11T08:17:59;7.47;;;2.85;;
65835;SDS011;52595;51.608;7.216;2022-08-11T08:20:31;10.00;;;2.78;;
65835;SDS011;52595;51.608;7.216;2022-08-11T08:23:01;8.95;;;3.35;;
65835;SDS011;52595;51.608;7.216;2022-08-11T08:25:29;8.25;;;3.28;;
65835;SDS011;52595;51.608;7.216;2022-08-11T08:27:58;8.13;;;2.90;;
65835;SDS011;52595;51.608;7.216;2022-08-11T08:30:25;6.00;;;2.72;;
65835;SDS011;52595;51.608;7.216;2022-08-11T08:33:18;10.38;;;3.10;;
65835;SDS011;52595;51.608;7.216;2022-08-11T08:35:46;7.80;;;3.17;;
65835;SDS011;52595;51.608;7.216;2022-08-11T08:38:14;8.10;;;3.03;;
65835;SDS011;52595;51.608;7.216;2022-08-11T08:40:41;6.97;;;3.45;;
65835;SDS011;52595;51.608;7.216;2022-08-11T08:43:11;9.43;;;3.00;;
65835;SDS011;52595;51.608;7.216;2022-08-11T08:45:40;7.30;;;2.90;;
65835;SDS011;52595;51.608;7.216;2022-08-11T08:48:10;7.15;;;3.20;;
65835;SDS011;52595;51.608;7.216;2022-08-11T08:51:00;10.55;;;3.00;;
65835;SDS011;52595;51.608;7.216;2022-08-11T08:53:47;4.97;;;3.15;;
65835;SDS011;52595;51.608;7.216;2022-08-11T08:56:15;5.18;;;3.03;;
65835;SDS011;52595;51.608;7.216;2022-08-11T08:58:42;6.82;;;3.08;;
65835;SDS011;52595;51.608;7.216;2022-08-11T09:01:12;8.20;;;2.97;;
65835;SDS011;52595;51.608;7.216;2022-08-11T09:03:40;10.02;;;2.90;;
65835;SDS011;52595;51.608;7.216;2022-08-11T09:06:07;9.70;;;3.33;;
65835;SDS011;52595;51.608;7.216;2022-08-11T09:08:33;8.20;;;2.78;;
65835;SDS011;52595;51.608;7.216;2022-08-11T09:10:59;7.22;;;2.92;;
65835;SDS011;52595;51.608;7.216;2022-08-11T09:13:45;5.05;;;2.90;;
65835;SDS011;52595;51.608;7.216;2022-08-11T09:16:11;5.40;;;2.75;;
65835;SDS011;52595;51.608;7.216;2022-08-11T09:18:38;4.10;;;2.80;;
65835;SDS011;52595;51.608;7.216;2022-08-11T09:21:08;7.43;;;3.08;;
65835;SDS011;52595;51.608;7.216;2022-08-11T09:23:36;10.23;;;3.10;;
65835;SDS011;52595;51.608;7.216;2022-08-11T09:26:22;4.35;;;2.78;;
65835;SDS011;52595;51.608;7.216;2022-08-11T09:29:06;9.07;;;3.10;;
65835;SDS011;52595;51.608;7.216;2022-08-11T09:31:33;6.13;;;2.92;;
65835;SDS011;52595;51.608;7.216;2022-08-11T09:33:59;8.00;;;2.92;;
65835;SDS011;52595;51.608;7.216;2022-08-11T09:36:26;4.80;;;2.72;;
65835;SDS011;52595;51.608;7.216;2022-08-11T09:39:21;5.85;;;2.90;;
65835;SDS011;52595;51.608;7.216;2022-08-11T09:42:05;6.07;;;2.83;;
65835;SDS011;52595;51.608;7.216;2022-08-11T09:44:32;6.90;;;2.75;;
65835;SDS011;52595;51.608;7.216;2022-08-11T09:47:19;5.32;;;2.60;;
65835;SDS011;52595;51.608;7.216;2022-08-11T09:49:46;5.85;;;2.80;;
65835;SDS011;52595;51.608;7.216;2022-08-11T09:52:13;6.43;;;2.70;;
65835;SDS011;52595;51.608;7.216;2022-08-11T09:54:43;6.82;;;2.92;;
65835;SDS011;52595;51.608;7.216;2022-08-11T09:57:11;4.10;;;2.80;;
65835;SDS011;52595;51.608;7.216;2022-08-11T09:59:56;5.05;;;2.90;;
65835;SDS011;52595;51.608;7.216;2022-08-11T10:02:22;4.40;;;2.90;;
65835;SDS011;52595;51.608;7.216;2022-08-11T10:04:51;11.10;;;2.90;;
65835;SDS011;52595;51.608;7.216;2022-08-11T10:07:42;8.15;;;3.20;;
65835;SDS011;52595;51.608;7.216;2022-08-11T10:10:14;6.13;;;2.80;;
65835;SDS011;52595;51.608;7.216;2022-08-11T10:12:46;9.32;;;2.95;;
65835;SDS011;52595;51.608;7.216;2022-08-11T10:15:15;3.90;;;2.90;;
65835;SDS011;52595;51.608;7.216;2022-08-11T10:17:59;4.55;;;2.60;;
65835;SDS011;52595;51.608;7.216;2022-08-11T10:20:47;5.63;;;2.88;;
65835;SDS011;52595;51.608;7.216;2022-08-11T10:23:14;7.55;;;3.10;;
65835;SDS011;52595;51.608;7.216;2022-08-11T10:25:58;6.15;;;2.90;;
65835;SDS011;52595;51.608;7.216;2022-08-11T10:28:42;5.03;;;2.90;;
65835;SDS011;52595;51.608;7.216;2022-08-11T10:31:08;5.22;;;2.90;;
65835;SDS011;52595;51.608;7.216;2022-08-11T10:33:52;6.97;;;2.70;;
65835;SDS011;52595;51.608;7.216;2022-08-11T10:36:28;5.10;;;2.80;;
65835;SDS011;52595;51.608;7.216;2022-08-11T10:38:56;5.10;;;2.92;;
65835;SDS011;52595;51.608;7.216;2022-08-11T10:41:22;4.63;;;2.50;;
65835;SDS011;52595;51.608;7.216;2022-08-11T10:44:07;7.35;;;2.72;;
65835;SDS011;52595;51.608;7.216;2022-08-11T10:46:34;6.85;;;2.85;;
65835;SDS011;52595;51.608;7.216;2022-08-11T10:49:19;5.40;;;2.70;;
65835;SDS011;52595;51.608;7.216;2022-08-11T10:51:46;10.82;;;2.80;;
65835;SDS011;52595;51.608;7.216;2022-08-11T10:54:30;4.63;;;2.63;;
65835;SDS011;52595;51.608;7.216;2022-08-11T10:57:16;5.57;;;2.97;;
65835;SDS011;52595;51.608;7.216;2022-08-11T11:00:01;6.03;;;2.80;;
65835;SDS011;52595;51.608;7.216;2022-08-11T11:02:30;9.10;;;3.00;;
65835;SDS011;52595;51.608;7.216;2022-08-11T11:04:58;4.57;;;2.80;;
65835;SDS011;52595;51.608;7.216;2022-08-11T11:07:53;5.03;;;2.88;;
65835;SDS011;52595;51.608;7.216;2022-08-11T11:10:21;8.60;;;2.70;;
65835;SDS011;52595;51.608;7.216;2022-08-11T11:12:50;5.13;;;2.75;;
65835;SDS011;52595;51.608;7.216;2022-08-11T11:15:39;4.60;;;2.75;;
65835;SDS011;52595;51.608;7.216;2022-08-11T11:18:27;4.72;;;2.70;;
65835;SDS011;52595;51.608;7.216;2022-08-11T11:21:08;7.25;;;2.85;;
65835;SDS011;52595;51.608;7.216;2022-08-11T11:23:42;8.10;;;3.08;;
65835;SDS011;52595;51.608;7.216;2022-08-11T11:31:33;4.40;;;2.90;;
65835;SDS011;52595;51.608;7.216;2022-08-11T11:34:11;3.78;;;2.70;;
65835;SDS011;52595;51.608;7.216;2022-08-11T11:36:47;5.45;;;2.67;;
65835;SDS011;52595;51.608;7.216;2022-08-11T11:39:19;6.68;;;2.70;;
65835;SDS011;52595;51.608;7.216;2022-08-11T11:41:47;5.18;;;2.60;;
65835;SDS011;52595;51.608;7.216;2022-08-11T11:44:13;6.40;;;2.60;;
65835;SDS011;52595;51.608;7.216;2022-08-11T11:46:39;4.03;;;2.70;;
65835;SDS011;52595;51.608;7.216;2022-08-11T11:49:06;4.30;;;2.72;;
65835;SDS011;52595;51.608;7.216;2022-08-11T11:51:35;9.27;;;2.50;;
65835;SDS011;52595;51.608;7.216;2022-08-11T11:54:01;5.07;;;2.67;;
65835;SDS011;52595;51.608;7.216;2022-08-11T11:56:29;5.80;;;2.92;;
65835;SDS011;52595;51.608;7.216;2022-08-11T11:58:56;6.30;;;2.63;;
65835;SDS011;52595;51.608;7.216;2022-08-11T12:01:40;7.45;;;2.67;;
65835;SDS011;52595;51.608;7.216;2022-08-11T12:04:07;5.53;;;2.50;;
65835;SDS011;52595;51.608;7.216;2022-08-11T12:06:36;7.32;;;2.70;;
65835;SDS011;52595;51.608;7.216;2022-08-11T12:09:02;3.72;;;2.47;;
65835;SDS011;52595;51.608;7.216;2022-08-11T12:11:29;6.10;;;2.70;;
65835;SDS011;52595;51.608;7.216;2022-08-11T12:14:15;5.78;;;2.90;;
65835;SDS011;52595;51.608;7.216;2022-08-11T12:16:43;4.22;;;2.70;;
65835;SDS011;52595;51.608;7.216;2022-08-11T12:19:16;6.35;;;2.63;;
65835;SDS011;52595;51.608;7.216;2022-08-11T12:21:45;5.20;;;2.53;;
65835;SDS011;52595;51.608;7.216;2022-08-11T12:24:30;7.28;;;2.90;;
65835;SDS011;52595;51.608;7.216;2022-08-11T12:27:16;6.00;;;2.60;;
65835;SDS011;52595;51.608;7.216;2022-08-11T12:32:17;6.63;;;2.60;;
65835;SDS011;52595;51.608;7.216;2022-08-11T12:34:44;3.97;;;2.38;;
65835;SDS011;52595;51.608;7.216;2022-08-11T12:37:09;4.55;;;2.60;;
65835;SDS011;52595;51.608;7.216;2022-08-11T12:39:38;4.28;;;2.70;;
65835;SDS011;52595;51.608;7.216;2022-08-11T12:42:30;5.43;;;2.85;;
65835;SDS011;52595;51.608;7.216;2022-08-11T12:45:16;5.13;;;2.80;;
65835;SDS011;52595;51.608;7.216;2022-08-11T12:47:52;5.25;;;2.70;;
65835;SDS011;52595;51.608;7.216;2022-08-11T12:51:05;10.63;;;2.88;;
65835;SDS011;52595;51.608;7.216;2022-08-11T12:54:04;5.78;;;2.47;;
65835;SDS011;52595;51.608;7.216;2022-08-11T12:56:49;8.38;;;2.70;;
65835;SDS011;52595;51.608;7.216;2022-08-11T12:59:38;7.22;;;2.70;;
65835;SDS011;52595;51.608;7.216;2022-08-11T13:02:23;5.53;;;2.70;;
65835;SDS011;52595;51.608;7.216;2022-08-11T13:05:10;6.32;;;2.53;;
65835;SDS011;52595;51.608;7.216;2022-08-11T13:07:37;4.70;;;2.58;;
65835;SDS011;52595;51.608;7.216;2022-08-11T13:10:07;5.75;;;2.80;;
65835;SDS011;52595;51.608;7.216;2022-08-11T13:12:34;7.40;;;2.70;;
65835;SDS011;52595;51.608;7.216;2022-08-11T13:15:14;6.35;;;2.63;;
65835;SDS011;52595;51.608;7.216;2022-08-11T13:17:48;4.32;;;2.78;;
65835;SDS011;52595;51.608;7.216;2022-08-11T13:20:16;7.97;;;2.88;;
65835;SDS011;52595;51.608;7.216;2022-08-11T13:22:44;9.13;;;2.80;;
65835;SDS011;52595;51.608;7.216;2022-08-11T13:25:14;6.55;;;2.58;;
65835;SDS011;52595;51.608;7.216;2022-08-11T13:27:44;6.03;;;2.55;;
65835;SDS011;52595;51.608;7.216;2022-08-11T13:30:14;5.68;;;2.30;;
65835;SDS011;52595;51.608;7.216;2022-08-11T13:32:59;8.75;;;2.47;;
65835;SDS011;52595;51.608;7.216;2022-08-11T13:35:27;4.82;;;2.65;;
65835;SDS011;52595;51.608;7.216;2022-08-11T13:37:54;4.90;;;2.60;;
65835;SDS011;52595;51.608;7.216;2022-08-11T13:40:20;6.63;;;2.60;;
65835;SDS011;52595;51.608;7.216;2022-08-11T13:42:47;7.88;;;2.38;;
65835;SDS011;52595;51.608;7.216;2022-08-11T13:45:13;5.55;;;2.58;;
65835;SDS011;52595;51.608;7.216;2022-08-11T13:47:40;7.95;;;2.50;;
65835;SDS011;52595;51.608;7.216;2022-08-11T13:50:07;7.95;;;2.55;;
65835;SDS011;52595;51.608;7.216;2022-08-11T13:52:34;3.70;;;2.40;;
65835;SDS011;52595;51.608;7.216;2022-08-11T13:55:03;5.38;;;2.47;;
65835;SDS011;52595;51.608;7.216;2022-08-11T13:57:30;8.48;;;2.72;;
65835;SDS011;52595;51.608;7.216;2022-08-11T14:00:00;8.68;;;2.60;;
65835;SDS011;52595;51.608;7.216;2022-08-11T14:02:44;5.40;;;2.50;;
65835;SDS011;52595;51.608;7.216;2022-08-11T14:05:13;5.10;;;2.80;;
65835;SDS011;52595;51.608;7.216;2022-08-11T14:10:18;8.50;;;2.30;;
65835;SDS011;52595;51.608;7.216;2022-08-11T14:12:58;7.78;;;2.50;;
65835;SDS011;52595;51.608;7.216;2022-08-11T14:15:44;6.25;;;2.50;;
65835;SDS011;52595;51.608;7.216;2022-08-11T14:18:19;6.00;;;2.63;;
65835;SDS011;52595;51.608;7.216;2022-08-11T14:20:48;3.00;;;2.38;;
65835;SDS011;52595;51.608;7.216;2022-08-11T14:23:39;4.00;;;2.47;;
65835;SDS011;52595;51.608;7.216;2022-08-11T14:26:09;3.83;;;2.50;;
65835;SDS011;52595;51.608;7.216;2022-08-11T14:28:48;6.72;;;2.45;;
65835;SDS011;52595;51.608;7.216;2022-08-11T14:31:19;5.40;;;2.30;;
65835;SDS011;52595;51.608;7.216;2022-08-11T14:33:47;6.68;;;2.50;;
65835;SDS011;52595;51.608;7.216;2022-08-11T14:36:14;7.55;;;2.63;;
65835;SDS011;52595;51.608;7.216;2022-08-11T14:38:40;5.63;;;2.58;;
65835;SDS011;52595;51.608;7.216;2022-08-11T14:41:07;3.65;;;2.50;;
65835;SDS011;52595;51.608;7.216;2022-08-11T14:43:54;6.53;;;2.60;;
65835;SDS011;52595;51.608;7.216;2022-08-11T14:46:40;6.05;;;2.88;;
65835;SDS011;52595;51.608;7.216;2022-08-11T14:49:26;4.03;;;2.60;;
65835;SDS011;52595;51.608;7.216;2022-08-11T14:51:53;5.85;;;2.45;;
65835;SDS011;52595;51.608;7.216;2022-08-11T14:54:24;5.75;;;2.50;;
65835;SDS011;52595;51.608;7.216;2022-08-11T14:57:10;4.50;;;2.30;;
65835;SDS011;52595;51.608;7.216;2022-08-11T14:59:37;3.78;;;2.55;;
65835;SDS011;52595;51.608;7.216;2022-08-11T15:02:04;3.90;;;2.38;;
65835;SDS011;52595;51.608;7.216;2022-08-11T15:04:51;5.13;;;2.42;;
65835;SDS011;52595;51.608;7.216;2022-08-11T15:07:18;3.38;;;2.40;;
65835;SDS011;52595;51.608;7.216;2022-08-11T15:09:53;6.07;;;2.55;;
65835;SDS011;52595;51.608;7.216;2022-08-11T15:12:20;5.28;;;2.70;;
65835;SDS011;52595;51.608;7.216;2022-08-11T15:14:46;5.20;;;2.58;;
65835;SDS011;52595;51.608;7.216;2022-08-11T15:17:31;7.85;;;2.75;;
65835;SDS011;52595;51.608;7.216;2022-08-11T15:20:03;4.63;;;2.55;;
65835;SDS011;52595;51.608;7.216;2022-08-11T15:22:49;6.45;;;2.67;;
65835;SDS011;52595;51.608;7.216;2022-08-11T15:25:34;5.47;;;2.70;;
65835;SDS011;52595;51.608;7.216;2022-08-11T15:28:01;4.47;;;2.47;;
65835;SDS011;52595;51.608;7.216;2022-08-11T15:30:46;3.70;;;2.70;;
65835;SDS011;52595;51.608;7.216;2022-08-11T15:33:36;7.03;;;2.50;;
65835;SDS011;52595;51.608;7.216;2022-08-11T15:36:23;3.08;;;2.65;;
65835;SDS011;52595;51.608;7.216;2022-08-11T15:39:30;5.90;;;2.60;;
65835;SDS011;52595;51.608;7.216;2022-08-11T15:42:01;4.25;;;2.50;;
65835;SDS011;52595;51.608;7.216;2022-08-11T15:44:52;7.80;;;2.60;;
65835;SDS011;52595;51.608;7.216;2022-08-11T15:47:43;3.60;;;2.50;;
65835;SDS011;52595;51.608;7.216;2022-08-11T15:50:14;5.50;;;2.50;;
65835;SDS011;52595;51.608;7.216;2022-08-11T15:55:12;5.80;;;2.53;;
65835;SDS011;52595;51.608;7.216;2022-08-11T15:57:38;5.07;;;2.60;;
65835;SDS011;52595;51.608;7.216;2022-08-11T16:00:24;4.63;;;2.30;;
65835;SDS011;52595;51.608;7.216;2022-08-11T16:03:09;4.75;;;2.38;;
65835;SDS011;52595;51.608;7.216;2022-08-11T16:05:55;5.63;;;2.80;;
65835;SDS011;52595;51.608;7.216;2022-08-11T16:08:21;6.65;;;2.65;;
65835;SDS011;52595;51.608;7.216;2022-08-11T16:10:49;6.50;;;2.50;;
65835;SDS011;52595;51.608;7.216;2022-08-11T16:13:16;6.57;;;2.50;;
65835;SDS011;52595;51.608;7.216;2022-08-11T16:15:53;4.38;;;2.58;;
65835;SDS011;52595;51.608;7.216;2022-08-11T16:18:47;5.18;;;2.60;;
65835;SDS011;52595;51.608;7.216;2022-08-11T16:21:23;3.72;;;2.58;;
65835;SDS011;52595;51.608;7.216;2022-08-11T16:23:51;4.28;;;2.60;;
65835;SDS011;52595;51.608;7.216;2022-08-11T16:26:20;6.93;;;2.90;;
65835;SDS011;52595;51.608;7.216;2022-08-11T16:28:48;8.57;;;2.70;;
65835;SDS011;52595;51.608;7.216;2022-08-11T16:31:16;6.75;;;2.50;;
65835;SDS011;52595;51.608;7.216;2022-08-11T16:33:43;6.03;;;2.50;;
65835;SDS011;52595;51.608;7.216;2022-08-11T16:36:10;5.65;;;2.63;;
65835;SDS011;52595;51.608;7.216;2022-08-11T16:38:56;6.40;;;2.70;;
65835;SDS011;52595;51.608;7.216;2022-08-11T16:41:24;4.18;;;2.78;;
65835;SDS011;52595;51.608;7.216;2022-08-11T16:44:12;7.88;;;2.70;;
65835;SDS011;52595;51.608;7.216;2022-08-11T16:47:18;4.40;;;2.53;;
65835;SDS011;52595;51.608;7.216;2022-08-11T16:49:50;4.63;;;2.88;;
65835;SDS011;52595;51.608;7.216;2022-08-11T16:52:17;4.13;;;2.72;;
65835;SDS011;52595;51.608;7.216;2022-08-11T16:54:44;6.93;;;2.70;;
65835;SDS011;52595;51.608;7.216;2022-08-11T16:57:13;5.18;;;2.55;;
65835;SDS011;52595;51.608;7.216;2022-08-11T17:00:04;5.43;;;2.60;;
65835;SDS011;52595;51.608;7.216;2022-08-11T17:02:32;8.15;;;2.75;;
65835;SDS011;52595;51.608;7.216;2022-08-11T17:05:21;6.60;;;2.58;;
65835;SDS011;52595;51.608;7.216;2022-08-11T17:08:08;5.23;;;2.90;;
65835;SDS011;52595;51.608;7.216;2022-08-11T17:11:10;5.95;;;2.80;;
65835;SDS011;52595;51.608;7.216;2022-08-11T17:13:56;3.65;;;2.67;;
65835;SDS011;52595;51.608;7.216;2022-08-11T17:16:34;3.95;;;2.67;;
65835;SDS011;52595;51.608;7.216;2022-08-11T17:19:12;4.47;;;2.63;;
65835;SDS011;52595;51.608;7.216;2022-08-11T17:24:32;5.32;;;2.95;;
65835;SDS011;52595;51.608;7.216;2022-08-11T17:26:59;11.38;;;3.13;;
65835;SDS011;52595;51.608;7.216;2022-08-11T17:32:00;6.38;;;2.97;;
65835;SDS011;52595;51.608;7.216;2022-08-11T17:34:47;4.50;;;2.90;;
65835;SDS011;52595;51.608;7.216;2022-08-11T17:37:34;4.45;;;2.80;;
65835;SDS011;52595;51.608;7.216;2022-08-11T17:40:02;8.15;;;2.90;;
65835;SDS011;52595;51.608;7.216;2022-08-11T17:42:31;4.43;;;2.78;;
65835;SDS011;52595;51.608;7.216;2022-08-11T17:45:17;8.88;;;3.25;;
65835;SDS011;52595;51.608;7.216;2022-08-11T17:48:14;3.40;;;2.90;;
65835;SDS011;52595;51.608;7.216;2022-08-11T17:50:59;7.75;;;2.97;;
65835;SDS011;52595;51.608;7.216;2022-08-11T17:53:30;8.00;;;2.88;;
65835;SDS011;52595;51.608;7.216;2022-08-11T17:56:18;9.77;;;3.10;;
65835;SDS011;52595;51.608;7.216;2022-08-11T17:59:03;4.18;;;2.80;;
65835;SDS011;52595;51.608;7.216;2022-08-11T18:01:49;6.25;;;3.00;;
65835;SDS011;52595;51.608;7.216;2022-08-11T18:04:16;7.57;;;2.95;;
65835;SDS011;52595;51.608;7.216;2022-08-11T18:06:43;8.65;;;2.70;;
65835;SDS011;52595;51.608;7.216;2022-08-11T18:09:12;5.25;;;2.90;;
65835;SDS011;52595;51.608;7.216;2022-08-11T18:11:59;6.53;;;2.97;;
65835;SDS011;52595;51.608;7.216;2022-08-11T18:14:46;6.13;;;3.58;;
65835;SDS011;52595;51.608;7.216;2022-08-11T18:17:32;5.38;;;2.92;;
65835;SDS011;52595;51.608;7.216;2022-08-11T18:20:17;5.35;;;3.58;;
65835;SDS011;52595;51.608;7.216;2022-08-11T18:23:03;5.40;;;3.47;;
65835;SDS011;52595;51.608;7.216;2022-08-11T18:25:50;5.57;;;3.05;;
65835;SDS011;52595;51.608;7.216;2022-08-11T18:28:42;6.32;;;3.20;;
65835;SDS011;52595;51.608;7.216;2022-08-11T18:31:28;5.18;;;3.10;;
65835;SDS011;52595;51.608;7.216;2022-08-11T18:34:16;4.88;;;3.35;;
65835;SDS011;52595;51.608;7.216;2022-08-11T18:37:09;6.15;;;3.13;;
65835;SDS011;52595;51.608;7.216;2022-08-11T18:40:03;10.43;;;4.43;;
65835;SDS011;52595;51.608;7.216;2022-08-11T18:42:51;6.80;;;3.20;;
65835;SDS011;52595;51.608;7.216;2022-08-11T18:45:39;6.10;;;3.28;;
65835;SDS011;52595;51.608;7.216;2022-08-11T18:48:25;8.15;;;3.50;;
65835;SDS011;52595;51.608;7.216;2022-08-11T18:51:10;4.90;;;3.35;;
65835;SDS011;52595;51.608;7.216;2022-08-11T18:53:56;4.70;;;3.30;;
65835;SDS011;52595;51.608;7.216;2022-08-11T18:56:45;4.70;;;3.08;;
65835;SDS011;52595;51.608;7.216;2022-08-11T18:59:31;6.78;;;3.30;;
65835;SDS011;52595;51.608;7.216;2022-08-11T19:02:18;6.13;;;3.40;;
65835;SDS011;52595;51.608;7.216;2022-08-11T19:05:05;6.22;;;3.30;;
65835;SDS011;52595;51.608;7.216;2022-08-11T19:07:50;6.53;;;3.47;;
65835;SDS011;52595;51.608;7.216;2022-08-11T19:10:37;6.45;;;3.60;;
65835;SDS011;52595;51.608;7.216;2022-08-11T19:13:22;4.97;;;3.30;;
65835;SDS011;52595;51.608;7.216;2022-08-11T19:16:08;5.45;;;3.33;;